• Join FlightAware (Why Join?)
  • Login
  • US Flag 
12:55AM EDT


 

Airport Tracker/Info


-or-


 

Live Flight TrackerFlight Track Log ✈ N201SU ✈ 21-Apr-2013 ✈ KBED - KMQS

Flight Track Log - Related Links

Times and Time Zones

All times are in EDT time to prevent confusion due to time zone crossing. See the N201SU flight status page for this flight to view local times or setup timezone preferences in your user account.

Time Position Orientation Groundspeed Altitude Reporting Facility
EDT Latitude Longitude Course Direction KTS MPH feet Rate Location/Type
05:57PM 42.4167 -71.3833 216° Southwest 253 291 3,000  Level KA90
05:58PM 42.3500 -71.3500 160° South 268 308 5,100 2,940 Climbing KA90
05:59PM 42.3000 -71.2833 135° Southeast 272 313 8,600 3,300 Climbing KA90
06:00PM 42.2889 -71.1406 96° East 307 353 13,300 2,160 Climbing Boston Center
06:01PM 42.2600 -71.0094 107° East 317 365 14,000 660 Climbing Boston Center
06:02PM 42.1967 -70.9436 142° Southeast 317 365 14,700 2,160 Climbing Boston Center
06:03PM 42.1022 -70.8928 158° South 318 366 18,400 3,300 Climbing Boston Center
06:04PM 42.0161 -70.8472 159° South 323 372 21,400 1,860 Climbing Boston Center
06:05PM 41.9322 -70.8019 158° South 349 402 22,200 780 Climbing Boston Center
06:06PM 41.8356 -70.7514 159° South 360 414 23,000 360 Climbing Boston Center
06:07PM 41.7431 -70.6956 156° South 366 421 23,000 1,260 Level Boston Center
06:08PM 41.6483 -70.6397 156° South 366 421 25,600 1,500 Climbing Boston Center
06:09PM 41.5631 -70.6533 187° South 326 375 26,000 180 Climbing Boston Center
06:10PM 41.5125 -70.7628 238° Southwest 270 311 26,000  Level Boston Center
06:11PM 41.4744 -70.8581 242° Southwest 276 318 26,000  Level Boston Center
06:12PM 41.4361 -70.9558 242° Southwest 287 330 26,000  Level Boston Center
06:13PM 41.3936 -71.0539 240° Southwest 299 344 26,000  Level Boston Center
06:14PM 41.3531 -71.1486 240° Southwest 299 344 26,000  Level Boston Center
06:15PM 41.3125 -71.2433 240° Southwest 304 350 26,000  Level Boston Center
06:16PM 41.2717 -71.3408 241° Southwest 304 350 26,000  Level Boston Center
06:17PM 41.2308 -71.4383 241° Southwest 304 350 26,000  Level Boston Center
06:19PM 41.1819 -71.5492 240° Southwest 304 350 26,000  Level Boston Center
06:20PM 41.1386 -71.6269 234° Southwest 299 344 26,000  Level Boston Center
06:21PM 41.0850 -71.7131 230° Southwest 299 344 26,000  Level Boston Center
06:22PM 41.0336 -71.8044 233° Southwest 299 344 26,000  Level Boston Center
06:23PM 40.9842 -71.9094 238° Southwest 304 350 26,000  Level Boston Center
06:24PM 40.9281 -71.9897 227° Southwest 304 350 26,000  Level Boston Center
06:25PM 40.8786 -72.0778 233° Southwest 304 350 26,000  Level Boston Center
06:26PM 40.8244 -72.1658 231° Southwest 304 350 26,000  Level Boston Center
06:27PM 40.7728 -72.2564 233° Southwest 309 356 26,000  Level Boston Center
06:28PM 40.7164 -72.3417 229° Southwest 324 373 26,000  Level Boston Center
06:29PM 40.6542 -72.4428 231° Southwest 345 397 26,000  Level Boston Center
06:30PM 40.5997 -72.5467 235° Southwest 352 405 26,000 -780 Level Boston Center
06:32PM 40.4764 -72.7519 232° Southwest 341 392 23,700 -1,200 Descending New York Center
06:33PM 40.4186 -72.8511 233° Southwest 341 392 22,500 -1,320 Descending New York Center
06:34PM 40.3606 -72.9500 232° Southwest 341 392 21,100 -1,260 Descending New York Center
06:35PM 40.3025 -73.0436 231° Southwest 335 386 20,100 -600 Descending New York Center
06:36PM 40.2464 -73.1367 232° Southwest 335 386 20,000 -60 Descending New York Center
06:37PM 40.1781 -73.2186 223° Southwest 335 386 20,000  Level New York Center
06:38PM 40.1075 -73.3003 222° Southwest 335 386 20,000  Level New York Center
06:39PM 40.0389 -73.3819 222° Southwest 335 386 20,000  Level New York Center
06:40PM 39.9769 -73.4553 222° Southwest 335 386 20,000  Level New York Center
06:41PM 39.9061 -73.5392 222° Southwest 340 391 20,000  Level New York Center
06:42PM 39.8456 -73.6314 229° Southwest 340 391 20,000  Level New York Center
06:43PM 39.7892 -73.7236 232° Southwest 340 391 20,000  Level New York Center
06:43PM 39.7458 -73.7914 230° Southwest 339 390 20,000 -120 Level Washington Center
06:44PM 39.6947 -73.8711 230° Southwest 318 366 19,900 -1,140 Descending Washington Center
06:45PM 39.6378 -73.9586 230° Southwest 313 360 17,800 -1,980 Descending Washington Center
06:46PM 39.5942 -74.0278 231° Southwest 318 366 16,500 -1,980 Descending FAA TRACON SMA TRACON (SMA)
06:46PM 39.5717 -74.0622 230° Southwest 321 369 15,700 -2,220 Descending FAA TRACON SMA TRACON (SMA)
06:47PM 39.5536 -74.0903 230° Southwest 325 374 15,100 -1,860 Descending FAA TRACON SMA TRACON (SMA)
06:47PM 39.5356 -74.1186 230° Southwest 327 376 14,500 -1,500 Descending FAA TRACON SMA TRACON (SMA)
06:47PM 39.5258 -74.1514 249° West 320 368 14,100 -780 Descending FAA TRACON SMA TRACON (SMA)
06:48PM 39.5228 -74.1939 265° West 310 357 14,000 -300 Descending FAA TRACON SMA TRACON (SMA)
06:48PM 39.5242 -74.2275 273° West 306 352 13,900 -780 Descending FAA TRACON SMA TRACON (SMA)
06:48PM 39.5256 -74.2664 273° West 317 365 13,500 -1,440 Descending FAA TRACON SMA TRACON (SMA)
06:49PM 39.5286 -74.3039 276° West 316 364 13,000 -1,560 Descending FAA TRACON SMA TRACON (SMA)
06:49PM 39.5272 -74.3403 267° West 311 358 12,500 -1,380 Descending FAA TRACON SMA TRACON (SMA)
06:49PM 39.5281 -74.3733 272° West 305 351 12,100 -780 Descending FAA TRACON SMA TRACON (SMA)
06:50PM 39.5289 -74.4125 272° West 299 344 12,000 -180 Descending FAA TRACON SMA TRACON (SMA)
06:50PM 39.5283 -74.4411 269° West 294 338 12,000 -300 Level FAA TRACON SMA TRACON (SMA)
06:50PM 39.5289 -74.4783 271° West 292 336 11,800 -900 Descending FAA TRACON SMA TRACON (SMA)
06:51PM 39.5297 -74.5183 272° West 291 335 11,400 -1,080 Descending FAA TRACON SMA TRACON (SMA)
06:51PM 39.5314 -74.5497 274° West 290 334 11,100 -480 Descending FAA TRACON SMA TRACON (SMA)
06:51PM 39.5311 -74.5819 269° West 287 330 11,100 -180 Level FAA TRACON SMA TRACON (SMA)
06:52PM 39.5322 -74.6186 272° West 286 329 11,000 -180 Descending FAA TRACON SMA TRACON (SMA)
06:52PM 39.5314 -74.6489 268° West 284 327 11,000  Level FAA TRACON SMA TRACON (SMA)
06:52PM 39.5325 -74.6833 272° West 281 323 11,000  Level FAA TRACON SMA TRACON (SMA)
06:53PM 39.5333 -74.7214 272° West 278 320 11,000 -600 Level FAA TRACON SMA TRACON (SMA)
06:53PM 39.5350 -74.7483 275° West 277 319 10,600 -1,200 Descending FAA TRACON SMA TRACON (SMA)
06:53PM 39.5347 -74.7825 269° West 276 318 10,200 -900 Descending FAA TRACON SMA TRACON (SMA)
06:54PM 39.5356 -74.8203 272° West 277 319 10,000 -300 Descending FAA TRACON SMA TRACON (SMA)
06:54PM 39.5367 -74.8492 273° West 278 320 10,000  Level FAA TRACON SMA TRACON (SMA)
06:54PM 39.5358 -74.8833 268° West 281 323 10,000  Level FAA TRACON SMA TRACON (SMA)
06:55PM 39.5367 -74.9219 272° West 280 322 10,000  Level FAA TRACON SMA TRACON (SMA)
06:55PM 39.5372 -74.9531 271° West 279 321 10,000  Level FAA TRACON SMA TRACON (SMA)
06:55PM 39.5381 -74.9839 272° West 278 320 10,000  Level FAA TRACON SMA TRACON (SMA)
06:56PM 39.5442 -75.0214 282° West 274 315 10,000  Level FAA TRACON SMA TRACON (SMA)
06:56PM 39.5514 -75.0517 287° West 283 326 10,000  Level FAA TRACON SMA TRACON (SMA)
06:56PM 39.5608 -75.0894 288° West 287 330 10,000  Level FAA TRACON SMA TRACON (SMA)
06:57PM 39.5683 -75.1203 288° West 289 333 10,000  Level FAA TRACON SMA TRACON (SMA)
06:57PM 39.5758 -75.1514 287° West 290 334 10,000  Level FAA TRACON SMA TRACON (SMA)
06:57PM 39.5822 -75.1817 285° West 288 331 10,000  Level FAA TRACON SMA TRACON (SMA)
06:58PM 39.5908 -75.2189 287° West 285 328 10,000  Level FAA TRACON SMA TRACON (SMA)
06:58PM 39.5975 -75.2497 286° West 282 325 10,000 -180 Level FAA TRACON SMA TRACON (SMA)
06:58PM 39.6050 -75.2831 286° West 280 322 9,900 -600 Descending FAA TRACON SMA TRACON (SMA)
06:59PM 39.6122 -75.3147 287° West 279 321 9,600 -780 Descending FAA TRACON SMA TRACON (SMA)
06:59PM 39.6194 -75.3458 287° West 277 319 9,400 -600 Descending FAA TRACON SMA TRACON (SMA)
06:59PM 39.6261 -75.3756 286° West 279 321 9,200 -660 Descending FAA TRACON SMA TRACON (SMA)
07:00PM 39.6344 -75.4125 286° West 278 320 9,000 -300 Descending FAA TRACON SMA TRACON (SMA)
07:00PM 39.6411 -75.4417 287° West 277 319 9,000  Level FAA TRACON SMA TRACON (SMA)
07:00PM 39.6481 -75.4722 286° West 282 325 9,000  Level FAA TRACON SMA TRACON (SMA)
07:01PM 39.6564 -75.5100 286° West 282 325 9,000 -300 Level FAA TRACON SMA TRACON (SMA)
07:01PM 39.6625 -75.5394 285° West 277 319 8,800 -780 Descending FAA TRACON SMA TRACON (SMA)
07:01PM 39.6689 -75.5667 287° West 269 310 8,500 -1,200 Descending FAA TRACON SMA TRACON (SMA)
07:02PM 39.6778 -75.6044 287° West 275 316 8,000 -1,200 Descending FAA TRACON SMA TRACON (SMA)
07:02PM 39.6867 -75.6333 292° West 286 329 7,700 -900 Descending FAA TRACON SMA TRACON (SMA)
07:02PM 39.7053 -75.6531 321° Northwest 280 322 7,400 -1,080 Descending FAA TRACON SMA TRACON (SMA)
07:03PM 39.7289 -75.6750 324° Northwest 267 307 7,000 -600 Descending FAA TRACON SMA TRACON (SMA)
07:03PM 39.7475 -75.6925 324° Northwest 270 311 7,000  Level FAA TRACON SMA TRACON (SMA)
07:03PM 39.7667 -75.7106 324° Northwest 272 313 7,000  Level FAA TRACON SMA TRACON (SMA)
07:04PM 39.7911 -75.7319 326° Northwest 273 314 7,000  Level FAA TRACON SMA TRACON (SMA)
07:04PM 39.8103 -75.7456 331° Northwest 276 318 7,000  Level FAA TRACON SMA TRACON (SMA)
07:04PM 39.8319 -75.7614 331° Northwest 274 315 7,000  Level FAA TRACON SMA TRACON (SMA)
07:05PM 39.8489 -75.7808 319° Northwest 270 311 7,000 -780 Level FAA TRACON SMA TRACON (SMA)
07:05PM 39.8669 -75.8086 310° West 261 300 6,500 -1,380 Descending FAA TRACON SMA TRACON (SMA)
07:05PM 39.8822 -75.8292 314° West 248 285 6,100 -1,500 Descending FAA TRACON SMA TRACON (SMA)
07:06PM 39.8958 -75.8481 313° West 227 261 5,500 -1,800 Descending FAA TRACON SMA TRACON (SMA)